Time;durP1;ratioP1;P1;durP2;ratioP2;P2;SDS_P1;SDS_P2;PMS_P1;PMS_P2;Temp;Humidity;BMP_temperature;BMP_pressure;BME280_temperature;BME280_humidity;BME280_pressure;Samples;Min_cycle;Max_cycle;Signal;HPM_P1;HPM_P2
2022/04/14 00:01:31;;;;;;;3.47;2.30;;;;;;;9.40;45.13;99573.81;5053648;28;20044;-69
2022/04/14 00:03:57;;;;;;;4.28;2.25;;;;;;;9.39;45.30;99577.44;5070931;28;20059;-69
2022/04/14 00:06:23;;;;;;;2.38;2.03;;;;;;;9.41;45.39;99579.94;5071282;28;20082;-71
2022/04/14 00:08:51;;;;;;;3.42;2.25;;;;;;;9.42;45.45;99566.53;5106892;28;20086;-69
2022/04/14 00:11:17;;;;;;;4.13;2.30;;;;;;;9.24;45.44;99589.53;5089659;28;20048;-68
2022/04/14 00:13:42;;;;;;;5.82;2.30;;;;;;;9.26;45.74;99592.88;5089848;28;20043;-68
2022/04/14 00:16:08;;;;;;;2.78;1.98;;;;;;;9.24;45.61;99578.13;5055824;28;20051;-68
2022/04/14 00:18:34;;;;;;;4.72;2.40;;;;;;;9.18;45.90;99587.50;5055576;28;20039;-68
2022/04/14 00:21:00;;;;;;;3.05;2.38;;;;;;;9.11;45.94;99575.84;5056086;28;20520;-68
2022/04/14 00:23:26;;;;;;;2.73;2.10;;;;;;;9.20;46.07;99593.47;5039155;28;20040;-68
2022/04/14 00:25:52;;;;;;;2.78;2.10;;;;;;;9.23;45.96;99587.03;5055845;28;20040;-68
2022/04/14 00:28:18;;;;;;;3.63;1.95;;;;;;;9.09;46.15;99577.78;5072305;28;20056;-69
2022/04/14 00:30:45;;;;;;;3.73;2.30;;;;;;;9.05;46.33;99572.94;5072133;28;20101;-68
2022/04/14 00:33:11;;;;;;;4.43;2.60;;;;;;;8.99;46.54;99581.50;5089729;28;20044;-69
2022/04/14 00:35:36;;;;;;;2.53;2.23;;;;;;;9.04;46.62;99585.34;5055481;28;20131;-68
2022/04/14 00:38:02;;;;;;;3.97;2.40;;;;;;;8.90;46.61;99580.59;5072320;28;20044;-69
2022/04/14 00:40:28;;;;;;;3.27;2.20;;;;;;;8.85;46.83;99571.41;5055565;28;20043;-69
2022/04/14 00:42:54;;;;;;;4.73;2.63;;;;;;;8.91;46.68;99570.81;5073215;28;20048;-69
2022/04/14 00:45:20;;;;;;;2.87;2.00;;;;;;;8.90;46.61;99574.44;5072658;28;20039;-68
2022/04/14 00:47:46;;;;;;;3.70;2.30;;;;;;;8.83;46.40;99562.75;5072284;28;20055;-69
2022/04/14 00:50:13;;;;;;;5.67;2.47;;;;;;;8.83;46.66;99562.75;5055199;28;20466;-69
2022/04/14 00:52:46;;;;;;;3.77;2.23;;;;;;;9.04;46.71;99568.66;5071846;28;20066;-68
2022/04/14 00:55:13;;;;;;;3.43;2.40;;;;;;;8.93;46.87;99567.03;5089162;28;20044;-68
2022/04/14 00:57:39;;;;;;;3.27;2.30;;;;;;;8.81;47.39;99572.69;5038836;28;20036;-69
2022/04/14 01:00:05;;;;;;;2.93;2.30;;;;;;;8.83;46.93;99568.91;5089412;28;20044;-68
2022/04/14 01:02:32;;;;;;;3.10;2.23;;;;;;;8.79;47.02;99566.69;5056748;28;20058;-69
2022/04/14 01:04:59;;;;;;;6.27;2.30;;;;;;;8.67;47.07;99542.25;5056636;28;20054;-68
2022/04/14 01:07:25;;;;;;;3.60;2.50;;;;;;;8.74;47.63;99566.31;5090980;28;20039;-68
2022/04/14 01:09:52;;;;;;;5.27;2.37;;;;;;;8.74;47.11;99568.97;5075107;28;20047;-69
2022/04/14 01:12:18;;;;;;;3.07;2.17;;;;;;;8.66;46.92;99556.47;5064708;28;20496;-68
2022/04/14 01:14:44;;;;;;;5.43;2.40;;;;;;;8.44;47.28;99546.28;5091705;28;20040;-69
2022/04/14 01:17:10;;;;;;;5.90;2.53;;;;;;;8.52;47.36;99575.47;5109697;28;20585;-68
2022/04/14 01:19:37;;;;;;;4.57;2.17;;;;;;;8.67;47.62;99579.31;5057607;28;20035;-69
2022/04/14 01:22:18;;;;;;;5.97;2.57;;;;;;;8.80;47.04;99565.72;5108790;28;20043;-68
2022/04/14 01:24:44;;;;;;;2.75;2.17;;;;;;;8.51;47.62;99573.81;5086373;28;20097;-69
2022/04/14 01:27:10;;;;;;;5.63;2.33;;;;;;;8.42;47.66;99574.69;5109439;28;20366;-69
2022/04/14 01:29:36;;;;;;;3.47;2.27;;;;;;;8.42;47.83;99582.63;5073293;28;20903;-69
2022/04/14 01:32:05;;;;;;;3.67;2.70;;;;;;;8.44;47.77;99578.03;5087360;28;20051;-69
2022/04/14 01:34:30;;;;;;;3.40;2.40;;;;;;;8.36;47.92;99575.28;5070700;28;20044;-69
2022/04/14 01:37:02;;;;;;;2.63;1.90;;;;;;;8.59;47.63;99566.00;5074933;28;20390;-69
2022/04/14 01:39:28;;;;;;;4.63;2.40;;;;;;;8.44;47.69;99584.16;5108007;28;20046;-71
2022/04/14 01:41:54;;;;;;;3.70;2.50;;;;;;;8.38;47.51;99583.88;5086440;28;20088;-68
2022/04/14 01:44:20;;;;;;;5.80;2.53;;;;;;;8.35;47.69;99594.75;5073309;28;20040;-69
2022/04/14 01:46:46;;;;;;;4.67;2.70;;;;;;;8.32;47.94;99600.34;5072872;28;20503;-69
2022/04/14 01:49:16;;;;;;;3.13;2.40;;;;;;;8.27;47.88;99595.50;5088359;28;20048;-70
2022/04/14 01:51:42;;;;;;;4.32;2.60;;;;;;;8.31;47.88;99596.88;5074943;28;20458;-68
2022/04/14 01:54:08;;;;;;;3.13;2.33;;;;;;;8.31;47.92;99585.47;5084748;28;20051;-68
2022/04/14 01:56:34;;;;;;;5.70;2.53;;;;;;;8.29;47.82;99585.63;5073979;28;20043;-69
2022/04/14 01:59:00;;;;;;;2.93;2.20;;;;;;;8.38;47.69;99583.88;5074225;28;20080;-69
2022/04/14 02:01:26;;;;;;;2.57;2.20;;;;;;;8.36;47.94;99583.22;5069595;28;20048;-69
2022/04/14 02:03:52;;;;;;;3.03;2.33;;;;;;;8.35;47.73;99592.13;5055458;28;20052;-68
2022/04/14 02:06:18;;;;;;;4.30;2.50;;;;;;;8.10;47.87;99563.66;5074770;28;20531;-68
2022/04/14 02:08:44;;;;;;;2.53;2.10;;;;;;;8.21;48.07;99598.69;5061000;28;20048;-68
2022/04/14 02:11:10;;;;;;;3.00;2.37;;;;;;;8.29;47.81;99593.56;5077624;28;20044;-69
2022/04/14 02:13:36;;;;;;;4.30;2.77;;;;;;;8.20;47.88;99601.47;5058058;28;20055;-69
2022/04/14 02:16:02;;;;;;;3.97;2.20;;;;;;;8.15;48.16;99604.56;5094033;28;20047;-68
2022/04/14 02:18:29;;;;;;;3.47;2.37;;;;;;;8.10;48.03;99608.63;5077123;28;20044;-68
2022/04/14 02:20:55;;;;;;;2.63;1.87;;;;;;;8.09;47.85;99607.78;5110689;28;20055;-69
2022/04/14 02:23:20;;;;;;;2.60;2.00;;;;;;;8.11;48.09;99624.34;5054795;28;20040;-68
2022/04/14 02:25:46;;;;;;;4.03;2.13;;;;;;;8.08;47.67;99618.50;5081527;28;20517;-68
2022/04/14 02:28:13;;;;;;;4.97;2.30;;;;;;;7.99;48.19;99609.63;5075951;28;20086;-70
2022/04/14 02:30:39;;;;;;;3.27;2.23;;;;;;;7.97;48.16;99600.16;5075901;28;20090;-69
2022/04/14 02:33:05;;;;;;;3.67;2.30;;;;;;;7.96;48.12;99615.19;5055262;28;20059;-70
2022/04/14 02:35:31;;;;;;;3.77;2.50;;;;;;;7.93;48.27;99604.06;5070409;28;20036;-71
2022/04/14 02:37:57;;;;;;;2.37;2.13;;;;;;;7.97;48.24;99618.66;5060715;28;20047;-68
2022/04/14 02:40:24;;;;;;;2.47;2.23;;;;;;;8.03;48.28;99611.00;5092805;28;20096;-69
2022/04/14 02:42:57;;;;;;;2.47;2.23;;;;;;;8.13;48.26;99603.03;5063516;28;20520;-69
2022/04/14 02:45:24;;;;;;;4.07;2.20;;;;;;;8.08;48.14;99611.41;5090790;28;20052;-69
2022/04/14 02:47:50;;;;;;;3.57;2.50;;;;;;;7.99;48.22;99609.63;5076010;28;20570;-69
2022/04/14 02:50:16;;;;;;;2.50;2.30;;;;;;;7.99;48.01;99609.63;5093371;28;20043;-69
2022/04/14 02:52:42;;;;;;;9.27;2.50;;;;;;;8.06;48.17;99607.22;5052521;28;20038;-69
2022/04/14 02:55:09;;;;;;;4.43;2.40;;;;;;;8.05;48.03;99613.50;5088499;28;20051;-68
2022/04/14 02:57:35;;;;;;;3.03;2.10;;;;;;;8.04;47.70;99620.59;5076073;28;20071;-68
2022/04/14 03:00:05;;;;;;;3.80;2.37;;;;;;;8.20;47.51;99626.13;5090421;28;20510;-72
2022/04/14 03:02:30;;;;;;;2.63;2.10;;;;;;;8.00;47.89;99616.56;5057261;28;20081;-68
2022/04/14 03:04:56;;;;;;;4.77;2.07;;;;;;;7.98;47.74;99626.44;5039980;28;20086;-69
2022/04/14 03:07:22;;;;;;;2.90;2.50;;;;;;;8.03;47.78;99634.81;5056829;28;20509;-68
2022/04/14 03:09:48;;;;;;;5.77;2.40;;;;;;;8.06;47.69;99629.22;5094987;28;20099;-68
2022/04/14 03:12:14;;;;;;;3.30;2.10;;;;;;;8.03;48.05;99634.81;5093960;28;20497;-68
2022/04/14 03:14:39;;;;;;;6.43;2.50;;;;;;;7.94;47.38;99597.78;5058876;28;20043;-69
2022/04/14 03:17:05;;;;;;;2.77;2.10;;;;;;;7.95;47.83;99632.03;5093575;28;20074;-69
2022/04/14 03:19:31;;;;;;;2.47;1.97;;;;;;;8.07;47.55;99630.88;5060566;28;20054;-72
2022/04/14 03:21:58;;;;;;;4.03;2.27;;;;;;;8.10;47.36;99643.00;5057082;28;20040;-68
2022/04/14 03:24:24;;;;;;;5.43;2.10;;;;;;;8.10;47.79;99632.44;5056160;28;20051;-69
2022/04/14 03:26:50;;;;;;;2.97;2.27;;;;;;;8.13;47.36;99654.13;5056613;28;20105;-70
2022/04/14 03:29:18;;;;;;;5.20;2.27;;;;;;;8.11;47.40;99652.59;5073361;28;20055;-70
2022/04/14 03:31:44;;;;;;;5.33;1.90;;;;;;;8.21;47.01;99656.06;5077546;28;20055;-69
2022/04/14 03:34:10;;;;;;;2.40;2.20;;;;;;;8.28;46.77;99659.84;5056359;28;20036;-70
2022/04/14 03:36:35;;;;;;;6.40;2.00;;;;;;;8.35;46.94;99663.56;5076611;28;20054;-68
2022/04/14 03:39:01;;;;;;;2.13;1.70;;;;;;;8.41;46.51;99655.91;5089586;28;20051;-75
2022/04/14 03:41:27;;;;;;;5.50;2.10;;;;;;;8.16;46.48;99627.38;5057492;28;20044;-69
2022/04/14 03:43:53;;;;;;;5.03;1.97;;;;;;;8.33;46.32;99666.34;5059058;28;20061;-69
2022/04/14 03:46:19;;;;;;;3.13;2.10;;;;;;;8.35;46.39;99667.06;5057747;28;20044;-71
2022/04/14 03:48:46;;;;;;;2.77;2.00;;;;;;;8.47;46.54;99662.44;5084719;28;20492;-70
2022/04/14 03:51:15;;;;;;;2.07;1.70;;;;;;;8.41;46.13;99649.78;5092467;28;20067;-71
2022/04/14 03:53:42;;;;;;;5.90;1.70;;;;;;;8.55;46.40;99663.38;5091712;28;20043;-73
2022/04/14 03:56:10;;;;;;;5.70;2.03;;;;;;;8.51;46.23;99663.81;5111817;28;20390;-73
2022/04/14 03:58:41;;;;;;;6.30;2.57;;;;;;;8.42;46.20;99660.22;5113953;28;20047;-71
2022/04/14 04:01:07;;;;;;;3.03;2.20;;;;;;;8.53;46.24;99662.69;5058350;28;20069;-71
2022/04/14 04:03:33;;;;;;;3.70;2.40;;;;;;;8.56;46.21;99650.97;5056215;28;20062;-71
2022/04/14 04:05:59;;;;;;;2.27;1.93;;;;;;;8.56;46.17;99651.81;5059576;28;20043;-73
2022/04/14 04:08:25;;;;;;;3.40;2.00;;;;;;;8.45;46.13;99630.00;5075056;28;20046;-75
2022/04/14 04:10:51;;;;;;;2.87;1.90;;;;;;;8.53;46.34;99657.38;5076061;28;20035;-71
2022/04/14 04:13:17;;;;;;;2.77;1.73;;;;;;;8.61;46.33;99658.50;5056301;28;20040;-71
2022/04/14 04:15:42;;;;;;;1.90;1.80;;;;;;;8.66;46.18;99667.66;5066907;28;20130;-71
2022/04/14 04:18:08;;;;;;;8.00;2.33;;;;;;;8.77;45.88;99667.47;5092136;28;20050;-69
2022/04/14 04:20:34;;;;;;;4.17;2.90;;;;;;;8.89;45.77;99662.84;5059380;28;20047;-70
2022/04/14 04:23:04;;;;;;;2.43;2.23;;;;;;;9.07;45.28;99635.38;5110367;28;20047;-67
2022/04/14 04:25:30;;;;;;;2.60;1.83;;;;;;;9.11;45.11;99657.97;5076319;28;20480;-69
2022/04/14 04:27:56;;;;;;;5.90;2.33;;;;;;;9.16;44.58;99666.31;5077664;28;20525;-71
2022/04/14 04:30:22;;;;;;;7.20;2.07;;;;;;;9.23;44.63;99669.19;5092902;28;20074;-70
2022/04/14 04:32:48;;;;;;;2.95;2.05;;;;;;;9.29;44.24;99669.44;5092780;28;20047;-69
2022/04/14 04:35:14;;;;;;;2.73;2.10;;;;;;;9.43;43.94;99663.63;5075690;28;20079;-68
2022/04/14 04:37:40;;;;;;;4.38;1.90;;;;;;;9.55;43.87;99675.66;5059329;28;20032;-69
2022/04/14 04:40:07;;;;;;;4.70;1.80;;;;;;;9.75;43.35;99674.53;5059363;28;20138;-70
2022/04/14 04:42:34;;;;;;;3.60;1.85;;;;;;;9.65;43.30;99667.66;5091035;28;20088;-69
2022/04/14 04:44:59;;;;;;;5.22;2.25;;;;;;;9.75;43.13;99671.03;5057764;28;20043;-67
2022/04/14 04:47:25;;;;;;;3.95;2.03;;;;;;;9.83;42.28;99666.66;5058257;28;20040;-69
2022/04/14 04:49:51;;;;;;;3.63;1.85;;;;;;;9.90;43.00;99673.00;5092170;28;20061;-68
2022/04/14 04:52:17;;;;;;;7.10;2.00;;;;;;;9.91;42.49;99672.03;5075534;28;20485;-66
2022/04/14 04:54:43;;;;;;;2.00;1.85;;;;;;;10.08;42.68;99667.72;5088369;28;20035;-68
2022/04/14 04:57:09;;;;;;;8.38;1.75;;;;;;;10.00;41.99;99652.53;5073949;28;20035;-68
2022/04/14 04:59:37;;;;;;;2.42;1.88;;;;;;;10.24;42.17;99654.56;5107739;28;20044;-68
2022/04/14 05:02:05;;;;;;;2.47;2.08;;;;;;;10.18;41.73;99648.06;5089446;28;20097;-69
2022/04/14 05:04:30;;;;;;;2.70;1.60;;;;;;;10.27;41.26;99661.41;5038534;28;20075;-68
2022/04/14 05:06:56;;;;;;;7.50;2.13;;;;;;;10.30;40.95;99669.06;5034909;28;20079;-68
2022/04/14 05:09:23;;;;;;;3.88;1.75;;;;;;;10.42;40.92;99670.44;5052141;28;20564;-69
2022/04/14 05:11:49;;;;;;;4.50;1.73;;;;;;;10.39;40.75;99670.78;5034533;28;20043;-69
2022/04/14 05:14:16;;;;;;;4.05;1.48;;;;;;;10.50;40.28;99650.06;5068749;28;20044;-69
2022/04/14 05:16:41;;;;;;;4.63;1.60;;;;;;;10.78;39.97;99685.28;5018987;28;20040;-68
2022/04/14 05:19:07;;;;;;;3.80;1.80;;;;;;;10.78;39.81;99650.75;5036947;28;20520;-69
2022/04/14 05:21:33;;;;;;;4.60;1.63;;;;;;;10.87;39.32;99671.88;5054242;28;20442;-68
2022/04/14 05:24:00;;;;;;;6.32;1.50;;;;;;;11.05;39.33;99677.09;5037538;28;20043;-68
2022/04/14 05:26:25;;;;;;;3.70;1.95;;;;;;;11.02;38.86;99653.50;5070944;28;20055;-68
2022/04/14 05:28:52;;;;;;;2.08;1.48;;;;;;;11.23;38.28;99659.22;5054114;28;20197;-68
2022/04/14 05:31:18;;;;;;;2.75;1.73;;;;;;;11.30;38.14;99666.38;5090328;28;20502;-68
2022/04/14 05:33:44;;;;;;;7.10;1.90;;;;;;;11.43;37.91;99650.81;5075249;28;20054;-69
2022/04/14 05:36:10;;;;;;;2.55;1.67;;;;;;;11.59;37.81;99672.09;5066709;28;20123;-68
2022/04/14 05:38:35;;;;;;;3.53;1.70;;;;;;;11.72;37.71;99676.97;5060725;28;20393;-69
2022/04/14 05:41:01;;;;;;;2.20;1.40;;;;;;;11.85;36.65;99678.16;5079338;28;20043;-68
2022/04/14 05:43:30;;;;;;;5.38;1.30;;;;;;;11.94;35.99;99681.66;5091141;28;20040;-68
2022/04/14 05:45:59;;;;;;;5.72;1.58;;;;;;;12.10;35.75;99672.84;5084679;28;20046;-68
2022/04/14 05:48:25;;;;;;;6.93;1.60;;;;;;;12.31;35.63;99683.81;5077568;28;20174;-68
2022/04/14 05:50:51;;;;;;;6.07;1.50;;;;;;;12.33;35.30;99679.97;5077831;28;20536;-67
2022/04/14 05:53:18;;;;;;;8.45;2.03;;;;;;;12.53;34.79;99673.28;5091555;28;20051;-68
2022/04/14 05:55:47;;;;;;;3.13;1.30;;;;;;;12.50;34.05;99676.31;5087634;28;20450;-68
2022/04/14 05:58:13;;;;;;;3.63;1.27;;;;;;;12.73;34.13;99681.75;5094524;28;20043;-69
2022/04/14 06:00:40;;;;;;;4.15;1.50;;;;;;;12.74;33.98;99670.09;5075829;28;20044;-69
2022/04/14 06:03:06;;;;;;;5.30;1.60;;;;;;;12.69;33.69;99672.44;5073841;28;20471;-70
2022/04/14 06:05:33;;;;;;;6.30;1.42;;;;;;;12.93;33.46;99665.19;5054345;28;20051;-69
2022/04/14 06:07:59;;;;;;;6.30;1.48;;;;;;;12.98;33.35;99676.19;5076054;28;20103;-68
2022/04/14 06:10:26;;;;;;;4.75;1.55;;;;;;;13.02;33.18;99666.84;5094956;28;20136;-68
2022/04/14 06:12:55;;;;;;;4.53;1.42;;;;;;;13.04;33.13;99659.53;5111136;28;20048;-68
2022/04/14 06:15:21;;;;;;;1.75;1.17;;;;;;;13.30;32.31;99678.72;5077797;28;20061;-69
2022/04/14 06:17:48;;;;;;;7.72;1.40;;;;;;;13.61;31.37;99677.91;5077592;28;20123;-69
2022/04/14 06:20:14;;;;;;;3.60;1.30;;;;;;;13.62;31.48;99682.25;5077657;28;20039;-69
2022/04/14 06:22:41;;;;;;;7.18;1.73;;;;;;;13.76;31.32;99678.81;5086952;28;20489;-70
2022/04/14 06:25:12;;;;;;;16.23;1.95;;;;;;;13.75;31.31;99677.97;5059848;28;20104;-71
2022/04/14 06:27:44;;;;;;;7.93;2.05;;;;;;;14.11;30.77;99683.56;5094550;28;20055;-69
2022/04/14 06:30:12;;;;;;;7.32;1.35;;;;;;;14.13;30.29;99687.69;5060753;28;20082;-70
2022/04/14 06:32:38;;;;;;;7.60;1.60;;;;;;;14.03;29.83;99663.09;5077607;28;20051;-69
2022/04/14 06:35:06;;;;;;;9.38;1.40;;;;;;;14.06;29.93;99628.00;5094520;28;20054;-68
2022/04/14 06:37:33;;;;;;;4.72;1.55;;;;;;;14.31;29.58;99674.06;5077510;28;20153;-68
2022/04/14 06:39:58;;;;;;;10.35;1.40;;;;;;;14.49;29.26;99687.91;5093761;28;20039;-68
2022/04/14 06:42:24;;;;;;;2.35;1.17;;;;;;;14.65;29.05;99687.78;5060704;28;20138;-68
2022/04/14 06:44:50;;;;;;;4.93;1.20;;;;;;;14.83;28.62;99701.59;5077556;28;20120;-70
2022/04/14 06:47:16;;;;;;;5.65;1.38;;;;;;;14.86;28.49;99691.38;5093887;28;20066;-68
2022/04/14 06:49:45;;;;;;;1.95;1.17;;;;;;;14.95;28.61;99706.31;5109620;28;20172;-69
2022/04/14 06:52:14;;;;;;;3.95;1.30;;;;;;;15.01;27.95;99694.03;5094618;28;20059;-69
2022/04/14 06:54:39;;;;;;;10.35;1.35;;;;;;;15.18;27.70;99688.31;5060572;28;20558;-69
2022/04/14 06:57:05;;;;;;;7.57;1.17;;;;;;;15.47;27.72;99690.16;5061391;28;20044;-69
2022/04/14 06:59:31;;;;;;;6.47;1.25;;;;;;;15.58;27.25;99692.34;5060366;28;20039;-70
2022/04/14 07:01:57;;;;;;;4.25;1.10;;;;;;;15.67;26.98;99685.03;5076445;28;20058;-69
2022/04/14 07:04:23;;;;;;;5.38;1.20;;;;;;;15.94;26.32;99697.69;5076740;28;20174;-69
2022/04/14 07:06:48;;;;;;;6.95;1.38;;;;;;;16.10;26.45;99695.56;5076657;28;20047;-69
2022/04/14 07:09:15;;;;;;;2.78;1.30;;;;;;;16.30;26.32;99685.88;5093145;28;20036;-69
2022/04/14 07:11:41;;;;;;;7.55;1.55;;;;;;;16.30;25.24;99683.19;5076275;28;20040;-70
2022/04/14 07:14:07;;;;;;;6.05;1.45;;;;;;;16.35;25.58;99691.47;5075966;28;20084;-71
2022/04/14 07:16:33;;;;;;;2.17;1.25;;;;;;;16.42;25.36;99681.63;5076302;28;20185;-69
2022/04/14 07:18:58;;;;;;;6.88;1.42;;;;;;;16.59;25.77;99692.94;5076328;28;20035;-69
2022/04/14 07:21:24;;;;;;;7.78;1.15;;;;;;;16.67;24.84;99680.22;5076428;28;20043;-70
2022/04/14 07:23:50;;;;;;;4.65;1.08;;;;;;;16.86;24.69;99684.03;5059374;28;20054;-69
2022/04/14 07:26:16;;;;;;;3.72;1.00;;;;;;;17.18;24.47;99682.56;5058650;28;20059;-71
2022/04/14 07:28:42;;;;;;;9.73;1.10;;;;;;;17.51;23.69;99683.59;5076178;28;20048;-70
2022/04/14 07:31:08;;;;;;;5.32;1.27;;;;;;;17.63;23.17;99673.91;5075818;28;20433;-70
2022/04/14 07:33:34;;;;;;;9.68;1.00;;;;;;;17.79;23.53;99674.34;5060201;28;20040;-69
2022/04/14 07:36:00;;;;;;;3.63;1.27;;;;;;;18.25;22.65;99677.13;5075962;28;20050;-71
2022/04/14 07:38:26;;;;;;;6.15;1.23;;;;;;;19.50;21.34;99671.34;5076609;28;20039;-74
2022/04/14 07:40:52;;;;;;;6.72;1.08;;;;;;;22.28;18.54;99667.09;5055764;28;20147;-73
2022/04/14 07:43:19;;;;;;;12.60;1.10;;;;;;;25.66;15.84;99667.78;5055819;28;20043;-73
2022/04/14 07:45:45;;;;;;;2.80;1.02;;;;;;;28.63;12.73;99654.81;5072192;28;20044;-74
2022/04/14 07:48:16;;;;;;;1.40;1.13;;;;;;;31.20;10.99;99658.53;5038379;28;20050;-74
2022/04/14 07:50:42;;;;;;;11.15;1.42;;;;;;;33.47;9.12;99678.69;5039852;28;20571;-74
2022/04/14 07:53:08;;;;;;;10.48;1.20;;;;;;;34.84;8.43;99628.31;5038480;28;20048;-74
2022/04/14 07:55:35;;;;;;;2.45;1.08;;;;;;;36.11;7.34;99657.47;5055975;28;20078;-73
2022/04/14 07:58:06;;;;;;;8.77;1.63;;;;;;;36.98;6.35;99642.09;5071986;28;20039;-74
2022/04/14 08:00:32;;;;;;;6.75;1.48;;;;;;;37.20;6.32;99652.91;5055737;28;20545;-74
2022/04/14 08:03:00;;;;;;;6.97;2.03;;;;;;;37.30;5.79;99660.09;5072379;28;20123;-74
2022/04/14 08:05:35;;;;;;;12.88;1.30;;;;;;;37.47;5.36;99668.31;5038931;28;20122;-74
2022/04/14 08:08:04;;;;;;;12.50;1.17;;;;;;;38.01;5.37;99649.88;5088075;28;20609;-73
2022/04/14 08:10:30;;;;;;;7.57;1.23;;;;;;;38.81;5.22;99648.50;5038343;28;20069;-74
2022/04/14 08:12:57;;;;;;;8.77;0.93;;;;;;;39.48;4.60;99646.91;5054357;28;20052;-73
2022/04/14 08:15:23;;;;;;;5.20;1.25;;;;;;;39.86;4.28;99630.63;5071754;28;20516;-74
2022/04/14 08:17:49;;;;;;;5.32;1.92;;;;;;;40.26;4.19;99644.56;5055472;28;20051;-74
2022/04/14 08:20:16;;;;;;;4.30;1.17;;;;;;;40.53;3.67;99640.97;5056805;28;20096;-74
2022/04/14 08:22:50;;;;;;;8.60;1.08;;;;;;;40.77;3.41;99643.66;5090262;28;20524;-74
2022/04/14 08:25:21;;;;;;;9.00;1.17;;;;;;;41.35;3.58;99658.72;5072902;28;20092;-74
2022/04/14 08:27:47;;;;;;;9.48;1.50;;;;;;;41.66;3.45;99658.69;5089315;28;20047;-75
2022/04/14 08:30:17;;;;;;;7.18;1.23;;;;;;;42.37;2.84;99642.38;5089511;28;20134;-75
2022/04/14 08:32:44;;;;;;;5.95;1.00;;;;;;;42.96;2.41;99627.94;5087320;28;20404;-75
2022/04/14 08:35:14;;;;;;;19.65;1.13;;;;;;;42.18;2.73;99636.75;5107842;28;20044;-75
2022/04/14 08:37:40;;;;;;;9.60;1.33;;;;;;;42.22;2.88;99648.00;5107946;28;20039;-75
2022/04/14 08:40:10;;;;;;;14.20;1.13;;;;;;;42.58;2.47;99630.81;5089577;28;20122;-74
2022/04/14 08:42:39;;;;;;;5.65;0.80;;;;;;;42.98;2.37;99642.34;5108972;28;20051;-74
2022/04/14 08:45:09;;;;;;;5.53;0.88;;;;;;;43.23;2.24;99610.03;5109090;28;20043;-74
2022/04/14 08:47:37;;;;;;;7.38;1.10;;;;;;;43.70;2.41;99632.78;5075329;28;20031;-69
2022/04/14 08:50:05;;;;;;;9.38;1.30;;;;;;;43.63;1.93;99615.88;5110248;28;20051;-73
2022/04/14 08:52:33;;;;;;;7.57;1.10;;;;;;;43.46;2.12;99618.41;5091514;28;20043;-70
2022/04/14 08:54:59;;;;;;;13.13;1.13;;;;;;;43.69;1.91;99591.97;5108239;28;20097;-72
2022/04/14 08:57:26;;;;;;;6.00;0.80;;;;;;;44.15;1.63;99623.41;5108130;28;20039;-72
2022/04/14 08:59:51;;;;;;;9.25;1.45;;;;;;;44.41;1.30;99598.94;5074581;28;20400;-72
2022/04/14 09:02:19;;;;;;;4.05;1.10;;;;;;;44.71;1.78;99610.09;5074709;28;20044;-72
2022/04/14 09:04:45;;;;;;;9.20;1.10;;;;;;;44.45;1.56;99615.78;5091724;28;20126;-71
2022/04/14 09:07:11;;;;;;;4.72;1.10;;;;;;;44.47;1.75;99607.81;5074675;28;20035;-71
2022/04/14 09:09:37;;;;;;;10.27;1.00;;;;;;;44.59;1.38;99602.75;5108668;28;20097;-69
2022/04/14 09:12:05;;;;;;;6.30;1.38;;;;;;;44.49;1.43;99606.22;5074639;28;20039;-71
2022/04/14 09:14:34;;;;;;;5.40;1.10;;;;;;;45.05;1.13;99605.22;5112339;28;20118;-72
2022/04/14 09:17:04;;;;;;;8.00;1.00;;;;;;;45.13;1.28;99601.28;5062553;28;20044;-73
2022/04/14 09:19:31;;;;;;;6.82;1.40;;;;;;;45.18;1.15;99604.50;5094997;28;20086;-72
2022/04/14 09:21:58;;;;;;;3.53;0.80;;;;;;;45.34;1.26;99590.19;5078426;28;20170;-73
2022/04/14 09:24:43;;;;;;;3.92;0.93;;;;;;;45.78;0.78;99604.97;5095251;28;20039;-73
2022/04/14 09:27:10;;;;;;;12.70;1.20;;;;;;;45.87;1.20;99594.97;5095453;28;20576;-73
2022/04/14 09:29:46;;;;;;;8.82;1.85;;;;;;;45.78;1.20;99577.69;5112603;28;20043;-73
2022/04/14 09:32:42;;;;;;;11.27;1.40;;;;;;;45.90;0.40;99588.56;5112624;27;20484;-73
2022/04/14 09:35:22;;;;;;;6.45;1.08;;;;;;;45.51;0.93;99581.94;5092564;28;20047;-73
2022/04/14 09:38:02;;;;;;;10.73;1.00;;;;;;;45.10;1.13;99586.03;5058436;28;20448;-72
2022/04/14 09:40:30;;;;;;;8.40;1.10;;;;;;;45.15;1.02;99570.84;5074837;28;20047;-72
2022/04/14 09:42:55;;;;;;;10.38;0.82;;;;;;;45.17;1.32;99583.28;5089537;28;20394;-72
2022/04/14 09:45:26;;;;;;;6.45;1.00;;;;;;;44.87;1.21;99574.19;5041528;28;20055;-72
2022/04/14 09:48:20;;;;;;;8.02;0.80;;;;;;;44.78;0.86;99581.31;5086218;28;20039;-73
2022/04/14 09:50:49;;;;;;;5.65;0.90;;;;;;;44.72;0.73;99571.66;5077321;28;20043;-73
2022/04/14 09:53:20;;;;;;;8.05;0.85;;;;;;;44.27;0.77;99570.75;5041765;28;20036;-72
2022/04/14 09:55:52;;;;;;;4.32;0.93;;;;;;;43.90;0.99;99539.13;5091690;28;20089;-73
2022/04/14 09:58:19;;;;;;;2.92;0.90;;;;;;;44.02;1.11;99555.66;5090780;28;20044;-73
2022/04/14 10:00:53;;;;;;;5.82;0.90;;;;;;;44.21;1.29;99575.06;5074279;28;20146;-73
2022/04/14 10:03:24;;;;;;;4.00;1.02;;;;;;;44.40;1.33;99565.69;5058041;28;20048;-74
2022/04/14 10:05:52;;;;;;;6.32;1.10;;;;;;;44.50;1.25;99560.19;5090739;28;20126;-74
2022/04/14 10:08:19;;;;;;;8.00;0.90;;;;;;;44.59;1.32;99555.09;5091220;28;20097;-74
2022/04/14 10:10:46;;;;;;;11.25;1.10;;;;;;;44.77;0.92;99577.69;5057371;28;20040;-74
2022/04/14 10:13:14;;;;;;;5.65;1.33;;;;;;;44.30;1.35;99555.19;5090568;28;20571;-75
2022/04/14 10:15:41;;;;;;;5.25;1.08;;;;;;;43.83;1.70;99519.41;5074415;28;20051;-74
2022/04/14 10:18:10;;;;;;;4.55;1.30;;;;;;;44.25;1.57;99561.91;5074402;28;20052;-71
2022/04/14 10:20:39;;;;;;;6.65;1.10;;;;;;;44.17;1.56;99560.22;5057858;28;20086;-74
2022/04/14 10:23:07;;;;;;;2.00;1.08;;;;;;;43.96;1.47;99557.19;5060634;28;20048;-72
2022/04/14 10:25:37;;;;;;;7.22;1.05;;;;;;;44.26;1.53;99559.94;5094845;28;20055;-72
2022/04/14 10:28:08;;;;;;;9.40;1.40;;;;;;;44.47;1.32;99546.16;5112373;28;20082;-72
2022/04/14 10:30:52;;;;;;;4.82;1.15;;;;;;;44.82;1.02;99554.13;5094656;28;20119;-74
2022/04/14 10:33:20;;;;;;;14.10;1.30;;;;;;;44.94;1.20;99562.22;5077700;28;20039;-73
2022/04/14 10:35:46;;;;;;;6.90;1.27;;;;;;;44.73;1.33;99563.66;5077053;28;20043;-73
2022/04/14 10:38:12;;;;;;;18.77;1.35;;;;;;;44.92;1.26;99568.22;5093808;28;20100;-72
2022/04/14 10:40:49;;;;;;;13.35;1.15;;;;;;;45.14;0.99;99563.59;5090084;28;20043;-72
2022/04/14 10:43:18;;;;;;;8.80;1.20;;;;;;;44.87;0.86;99560.19;5072875;28;20051;-73
2022/04/14 10:45:52;;;;;;;4.13;0.85;;;;;;;44.73;1.09;99549.63;5056707;28;20044;-73
2022/04/14 10:48:32;;;;;;;5.65;1.10;;;;;;;44.26;1.24;99521.53;5057011;28;20092;-72
2022/04/14 10:51:16;;;;;;;4.45;1.00;;;;;;;44.10;1.51;99540.53;5073500;28;20906;-72
2022/04/14 10:53:55;;;;;;;2.72;0.90;;;;;;;43.37;1.14;99539.53;5073577;28;20061;-72
2022/04/14 10:56:33;;;;;;;8.88;0.80;;;;;;;42.82;1.70;99538.25;5073598;28;20047;-72
2022/04/14 10:59:03;;;;;;;10.07;1.35;;;;;;;42.72;1.83;99542.47;5073130;28;20063;-72
2022/04/14 11:02:02;;;;;;;4.70;1.00;;;;;;;42.22;1.59;99533.50;5056514;28;20048;-72
2022/04/14 11:04:34;;;;;;;8.82;1.13;;;;;;;42.16;1.67;99502.31;5038046;28;20462;-72
2022/04/14 11:07:11;;;;;;;3.60;0.88;;;;;;;41.74;2.18;99532.94;5056498;28;20401;-72
2022/04/14 11:09:38;;;;;;;1.63;0.70;;;;;;;41.19;2.35;99538.03;5056663;28;20048;-72
2022/04/14 11:12:27;;;;;;;4.22;1.17;;;;;;;40.54;2.47;99517.28;5072058;28;20813;-71
2022/04/14 11:15:04;;;;;;;5.88;1.27;;;;;;;39.84;2.49;99509.78;5056194;28;20051;-71
2022/04/14 11:20:23;;;;;;;5.65;1.92;;;;;;;39.08;3.05;99511.75;5072121;28;20101;-72
2022/04/14 11:23:12;;;;;;;12.65;1.30;;;;;;;38.81;3.36;99501.31;5072133;28;20052;-72
2022/04/14 11:25:44;;;;;;;15.88;1.83;;;;;;;37.83;3.71;99512.50;5089291;28;20074;-71
2022/04/14 11:28:30;;;;;;;10.32;1.48;;;;;;;36.48;4.55;99505.47;5089542;28;20489;-71
2022/04/14 11:30:58;;;;;;;4.82;1.02;;;;;;;35.16;4.93;99492.66;5072716;28;20071;-72
2022/04/14 11:33:28;;;;;;;3.80;1.13;;;;;;;34.41;5.53;99495.66;5055760;28;20040;-72
2022/04/14 11:36:06;;;;;;;6.32;1.60;;;;;;;33.34;6.33;99481.19;5071324;28;20101;-72
2022/04/14 11:39:04;;;;;;;8.68;1.40;;;;;;;32.26;6.88;99493.84;5088564;28;20137;-71
2022/04/14 11:41:42;;;;;;;10.95;1.20;;;;;;;31.24;7.31;99486.69;5055883;28;20077;-73
2022/04/14 11:44:11;;;;;;;14.13;8.20;;;;;;;30.06;7.88;99448.28;5055117;28;20108;-73
2022/04/14 11:46:40;;;;;;;8.95;1.77;;;;;;;29.35;8.21;99480.91;5072493;28;20470;-71